Time;durP1;ratioP1;P1;durP2;ratioP2;P2;SDS_P1;SDS_P2;PMS_P1;PMS_P2;Temp;Humidity;BMP_temperature;BMP_pressure;BME280_temperature;BME280_humidity;BME280_pressure;Samples;Min_cycle;Max_cycle;Signal;HPM_P1;HPM_P2
2024/03/30 00:01:26;;;;;;;40.90;8.23;;;11.90;99.90;;;;;;4970044;28;20038;-76
2024/03/30 00:03:53;;;;;;;50.78;9.05;;;11.90;99.90;;;;;;4955635;28;20478;-77
2024/03/30 00:06:18;;;;;;;58.55;9.48;;;12.00;99.90;;;;;;4955413;28;20297;-76
2024/03/30 00:08:44;;;;;;;50.13;8.68;;;12.10;99.90;;;;;;4955411;28;20035;-77
2024/03/30 00:11:10;;;;;;;52.58;7.97;;;12.10;99.90;;;;;;4955665;28;20045;-76
2024/03/30 00:13:35;;;;;;;61.28;9.10;;;12.10;99.90;;;;;;4972306;28;20563;-76
2024/03/30 00:16:11;;;;;;;48.38;9.00;;;12.20;99.90;;;;;;4954558;28;20038;-76
2024/03/30 00:18:37;;;;;;;56.67;9.82;;;12.20;99.90;;;;;;4952669;28;20111;-77
2024/03/30 00:21:03;;;;;;;73.03;11.70;;;12.20;99.90;;;;;;4972671;28;20109;-76
2024/03/30 00:23:30;;;;;;;66.20;10.05;;;12.20;99.90;;;;;;4971662;28;20130;-77
2024/03/30 00:25:57;;;;;;;69.03;11.05;;;12.30;99.90;;;;;;4972754;28;20035;-77
2024/03/30 00:28:23;;;;;;;64.82;9.68;;;12.30;99.90;;;;;;4972828;28;20042;-76
2024/03/30 00:30:49;;;;;;;60.45;9.88;;;12.20;99.90;;;;;;4972465;28;20081;-76
2024/03/30 00:33:15;;;;;;;58.33;9.55;;;12.30;99.90;;;;;;4972437;28;20042;-77
2024/03/30 00:35:41;;;;;;;59.20;8.85;;;12.30;99.90;;;;;;4955209;28;20027;-76
2024/03/30 00:38:07;;;;;;;56.95;10.07;;;12.30;99.90;;;;;;4972212;28;20030;-76
2024/03/30 00:40:36;;;;;;;43.05;7.32;;;12.20;99.90;;;;;;4971146;28;20046;-76
2024/03/30 00:43:03;;;;;;;48.60;9.48;;;12.10;99.90;;;;;;4972550;28;20123;-76
2024/03/30 00:45:29;;;;;;;44.15;9.20;;;12.00;99.90;;;;;;4953237;28;20121;-76
2024/03/30 00:47:55;;;;;;;42.65;10.02;;;12.00;99.90;;;;;;4955109;28;20031;-76
2024/03/30 00:50:24;;;;;;;38.15;9.40;;;12.10;99.90;;;;;;4954760;28;20081;-76
2024/03/30 00:52:50;;;;;;;48.72;10.68;;;12.00;99.90;;;;;;4955046;28;20078;-76
2024/03/30 00:55:15;;;;;;;47.08;11.05;;;12.00;99.90;;;;;;4955045;28;20031;-76
2024/03/30 00:57:44;;;;;;;37.05;9.07;;;12.00;99.90;;;;;;4955065;28;20034;-76
2024/03/30 01:00:10;;;;;;;40.55;9.05;;;12.00;99.90;;;;;;4972103;28;20279;-76
2024/03/30 01:02:40;;;;;;;45.92;9.82;;;11.90;99.90;;;;;;4953514;28;20062;-77
2024/03/30 01:05:06;;;;;;;45.55;10.23;;;11.90;99.90;;;;;;4969415;28;20027;-77
2024/03/30 01:07:32;;;;;;;39.47;9.73;;;11.80;99.90;;;;;;4972238;28;20073;-76
2024/03/30 01:09:58;;;;;;;29.90;9.32;;;11.00;99.90;;;;;;4971927;28;20026;-76
2024/03/30 01:12:25;;;;;;;31.77;8.98;;;12.00;99.90;;;;;;4972239;28;20169;-76
2024/03/30 01:14:51;;;;;;;30.90;8.32;;;11.80;99.90;;;;;;4972208;28;20548;-76
2024/03/30 01:17:17;;;;;;;32.08;9.00;;;11.70;99.90;;;;;;4968330;28;20027;-77
2024/03/30 01:19:44;;;;;;;39.55;9.57;;;11.60;99.90;;;;;;4954852;28;20287;-76
2024/03/30 01:22:11;;;;;;;28.38;8.20;;;11.60;99.90;;;;;;4954780;28;20538;-77
2024/03/30 01:24:37;;;;;;;32.90;8.73;;;11.50;99.90;;;;;;4972145;28;20382;-76
2024/03/30 01:27:11;;;;;;;38.58;8.63;;;11.40;99.90;;;;;;4975524;28;20027;-76
2024/03/30 01:29:37;;;;;;;55.40;10.80;;;11.40;99.90;;;;;;4954912;29;20051;-77
2024/03/30 01:32:03;;;;;;;63.13;10.73;;;11.50;99.90;;;;;;4956487;29;20031;-76
2024/03/30 01:34:30;;;;;;;65.72;10.65;;;11.50;99.90;;;;;;4956419;29;20024;-76
2024/03/30 01:36:56;;;;;;;62.50;10.18;;;11.60;99.90;;;;;;4956368;28;20027;-77
2024/03/30 01:39:22;;;;;;;57.58;11.27;;;11.60;99.90;;;;;;4956325;28;20030;-76
2024/03/30 01:41:47;;;;;;;72.78;10.30;;;11.60;99.90;;;;;;4956230;29;20384;-76
2024/03/30 01:44:14;;;;;;;71.45;10.85;;;11.60;99.90;;;;;;4955936;29;20026;-76
2024/03/30 01:46:40;;;;;;;70.47;11.93;;;11.60;99.90;;;;;;4956292;29;20027;-76
2024/03/30 01:49:07;;;;;;;58.45;10.77;;;11.60;99.90;;;;;;4956105;28;20117;-76
2024/03/30 01:51:34;;;;;;;63.17;10.75;;;11.60;99.90;;;;;;4956081;29;20437;-76
2024/03/30 01:54:01;;;;;;;48.35;9.55;;;11.60;99.90;;;;;;4954669;29;20155;-77
2024/03/30 01:56:28;;;;;;;52.42;10.52;;;11.60;99.90;;;;;;4956137;29;20072;-76
2024/03/30 01:58:54;;;;;;;63.72;11.52;;;11.70;99.90;;;;;;4955943;29;20019;-76
2024/03/30 02:01:21;;;;;;;66.70;11.02;;;11.70;99.90;;;;;;4956010;29;20178;-76
2024/03/30 02:03:49;;;;;;;66.35;10.13;;;11.70;99.90;;;;;;4955952;29;20092;-76
2024/03/30 02:06:15;;;;;;;87.50;11.30;;;11.70;99.90;;;;;;4954557;28;20482;-76
2024/03/30 02:08:42;;;;;;;71.80;11.77;;;11.70;99.90;;;;;;4954422;29;20481;-77
2024/03/30 02:11:10;;;;;;;59.92;11.13;;;11.70;99.90;;;;;;4938441;29;20023;-76
2024/03/30 02:13:36;;;;;;;63.58;10.80;;;11.70;99.90;;;;;;4954431;29;20114;-76
2024/03/30 02:16:01;;;;;;;71.70;11.50;;;11.70;99.90;;;;;;4953753;28;20110;-76
2024/03/30 02:18:27;;;;;;;77.93;11.80;;;11.80;99.90;;;;;;4954143;29;20046;-76
2024/03/30 02:20:53;;;;;;;79.55;11.95;;;11.80;99.90;;;;;;4955564;28;20088;-76
2024/03/30 02:23:19;;;;;;;78.63;13.10;;;11.90;99.90;;;;;;4955556;29;20098;-76
2024/03/30 02:25:44;;;;;;;87.47;12.88;;;12.00;99.90;;;;;;4955510;29;20110;-76
2024/03/30 02:28:11;;;;;;;84.65;12.15;;;12.10;99.90;;;;;;4953736;29;20384;-77
2024/03/30 02:30:39;;;;;;;85.07;12.75;;;12.20;99.90;;;;;;4955829;29;20111;-76
2024/03/30 02:33:05;;;;;;;74.65;10.90;;;12.20;99.90;;;;;;4955189;29;20498;-76
2024/03/30 02:35:31;;;;;;;93.43;12.23;;;12.20;99.90;;;;;;4955474;29;20019;-76
2024/03/30 02:37:57;;;;;;;73.78;10.93;;;12.30;99.90;;;;;;4970538;28;20047;-77
2024/03/30 02:40:23;;;;;;;91.47;12.73;;;12.40;99.90;;;;;;4955390;29;20035;-76
2024/03/30 02:42:49;;;;;;;69.80;11.95;;;12.60;99.90;;;;;;4956731;29;20027;-76
2024/03/30 02:45:15;;;;;;;66.60;11.15;;;13.10;91.90;;;;;;4955212;29;20523;-76
2024/03/30 02:47:41;;;;;;;112.38;14.68;;;13.50;55.00;;;;;;4971095;28;20027;-76
2024/03/30 02:50:07;;;;;;;80.40;10.77;;;13.70;51.90;;;;;;4956461;28;20473;-76
2024/03/30 02:52:33;;;;;;;79.63;11.02;;;13.60;61.50;;;;;;4955323;29;20608;-76
2024/03/30 02:54:59;;;;;;;84.45;12.02;;;13.60;59.70;;;;;;4955065;29;20055;-76
2024/03/30 02:57:25;;;;;;;97.05;12.57;;;13.80;42.60;;;;;;4971341;28;20483;-76
2024/03/30 02:59:51;;;;;;;70.15;11.85;;;13.90;41.60;;;;;;4956691;28;20027;-76
2024/03/30 03:02:17;;;;;;;75.30;11.98;;;13.90;38.30;;;;;;4956440;29;20027;-76
2024/03/30 03:04:45;;;;;;;72.40;11.40;;;13.90;37.20;;;;;;4956430;29;20034;-76
2024/03/30 03:07:11;;;;;;;78.63;10.63;;;14.00;33.90;;;;;;4956249;29;20038;-76
2024/03/30 03:09:37;;;;;;;92.10;12.02;;;14.00;39.20;;;;;;4954878;29;20035;-76
2024/03/30 03:12:03;;;;;;;88.35;10.85;;;14.00;29.30;;;;;;4954891;28;20082;-76
2024/03/30 03:14:32;;;;;;;68.05;11.00;;;14.10;21.50;;;;;;4956052;29;20117;-76
2024/03/30 03:17:01;;;;;;;81.10;11.10;;;14.10;9.60;;;;;;4970748;28;20372;-77
2024/03/30 03:19:26;;;;;;;78.25;11.25;;;14.30;1.70;;;;;;4954632;29;20123;-76
2024/03/30 03:21:52;;;;;;;93.10;12.27;;;14.40;1.00;;;;;;4956188;29;20434;-76
2024/03/30 03:24:18;;;;;;;90.30;12.73;;;14.40;1.00;;;;;;4955914;29;20043;-78
2024/03/30 03:26:43;;;;;;;82.55;11.75;;;14.40;1.00;;;;;;4955984;29;20442;-78
2024/03/30 03:29:10;;;;;;;86.03;12.55;;;14.40;1.00;;;;;;4955535;29;20126;-78
2024/03/30 03:31:36;;;;;;;95.55;13.30;;;14.40;1.00;;;;;;4955666;29;20110;-79
2024/03/30 03:34:01;;;;;;;82.22;10.77;;;14.40;1.00;;;;;;4955790;29;20455;-78
2024/03/30 03:36:27;;;;;;;77.63;12.75;;;14.40;1.00;;;;;;4955892;29;20032;-78
2024/03/30 03:38:53;;;;;;;96.03;12.32;;;14.40;2.70;;;;;;4955709;29;20024;-78
2024/03/30 03:41:18;;;;;;;106.30;13.38;;;14.30;10.70;;;;;;4954354;29;20534;-78
2024/03/30 03:43:44;;;;;;;83.70;11.95;;;14.30;1.00;;;;;;4955621;29;20015;-78
2024/03/30 03:46:10;;;;;;;82.78;11.88;;;14.30;1.00;;;;;;4955463;28;20063;-78
2024/03/30 03:48:35;;;;;;;91.90;13.45;;;14.40;3.00;;;;;;4954128;28;20078;-78
2024/03/30 03:51:01;;;;;;;85.85;10.52;;;14.50;1.00;;;;;;4954126;29;20031;-78
2024/03/30 03:53:27;;;;;;;84.65;13.10;;;14.40;12.60;;;;;;4955519;29;20030;-78
2024/03/30 03:55:53;;;;;;;92.07;12.75;;;14.40;3.90;;;;;;4954143;28;20027;-79
2024/03/30 03:58:19;;;;;;;96.65;12.05;;;14.40;3.50;;;;;;4955318;28;20023;-78
2024/03/30 04:00:44;;;;;;;106.15;12.63;;;14.40;14.20;;;;;;4955261;29;20042;-78
2024/03/30 04:03:10;;;;;;;97.88;12.65;;;14.20;21.40;;;;;;4955334;29;20038;-78
2024/03/30 04:05:36;;;;;;;96.88;11.90;;;14.20;11.30;;;;;;4953924;29;20031;-78
2024/03/30 04:08:02;;;;;;;84.57;13.60;;;14.30;20.00;;;;;;4953909;29;20035;-78
2024/03/30 04:10:28;;;;;;;80.15;12.45;;;14.20;28.50;;;;;;4937773;29;20402;-78
2024/03/30 04:12:54;;;;;;;76.15;11.75;;;14.20;39.90;;;;;;4955165;28;20034;-78
2024/03/30 04:15:19;;;;;;;95.78;12.93;;;14.20;24.90;;;;;;4951372;29;20041;-78
2024/03/30 04:17:46;;;;;;;97.85;16.25;;;14.20;19.10;;;;;;4933022;29;20398;-78
2024/03/30 04:20:12;;;;;;;96.68;13.32;;;14.30;18.30;;;;;;4950843;29;20442;-78
2024/03/30 04:22:38;;;;;;;77.75;12.25;;;14.30;15.80;;;;;;4953851;29;20035;-78
2024/03/30 04:25:04;;;;;;;85.88;11.55;;;14.40;8.10;;;;;;4954952;29;20031;-78
2024/03/30 04:27:30;;;;;;;95.93;14.02;;;14.30;18.90;;;;;;4954956;29;20035;-78
2024/03/30 04:29:58;;;;;;;92.93;11.77;;;14.40;12.30;;;;;;4954347;29;20050;-78
2024/03/30 04:32:24;;;;;;;95.60;13.32;;;14.40;20.70;;;;;;4954914;29;20019;-78
2024/03/30 04:34:50;;;;;;;77.53;13.90;;;14.30;16.50;;;;;;4954789;29;20082;-78
2024/03/30 04:37:16;;;;;;;90.05;12.88;;;14.30;25.20;;;;;;4954843;29;20254;-78
2024/03/30 04:39:42;;;;;;;101.43;13.35;;;14.20;26.30;;;;;;4954522;29;20023;-78
2024/03/30 04:42:09;;;;;;;102.55;14.65;;;14.20;24.40;;;;;;4937430;29;20038;-78
2024/03/30 04:44:36;;;;;;;86.55;13.82;;;14.30;6.20;;;;;;4954554;29;20054;-78
2024/03/30 04:47:02;;;;;;;87.88;11.48;;;14.40;8.70;;;;;;4954738;29;20583;-78
2024/03/30 04:49:28;;;;;;;110.32;13.73;;;14.50;1.00;;;;;;4954100;29;20126;-78
2024/03/30 04:51:54;;;;;;;87.63;14.13;;;14.50;1.00;;;;;;4954710;29;20106;-78
2024/03/30 04:54:19;;;;;;;89.63;12.18;;;14.50;1.00;;;;;;4954706;29;20019;-78
2024/03/30 04:56:45;;;;;;;80.35;12.90;;;14.50;1.00;;;;;;4953411;29;20561;-78
2024/03/30 04:59:11;;;;;;;95.65;13.27;;;14.50;1.00;;;;;;4954305;29;20038;-78
2024/03/30 05:01:36;;;;;;;99.45;13.70;;;14.50;1.00;;;;;;4957550;28;20023;-78
2024/03/30 05:04:02;;;;;;;96.30;13.07;;;14.50;1.00;;;;;;4958616;29;20023;-78
2024/03/30 05:06:28;;;;;;;119.07;16.23;;;14.60;1.00;;;;;;4941365;29;20023;-78
2024/03/30 05:08:53;;;;;;;98.30;13.65;;;14.60;1.00;;;;;;4958319;29;20031;-78
2024/03/30 05:11:19;;;;;;;102.80;14.07;;;14.70;1.00;;;;;;4958343;29;20027;-78
2024/03/30 05:13:45;;;;;;;113.90;15.40;;;14.70;1.00;;;;;;4958221;29;20547;-78
2024/03/30 05:16:11;;;;;;;95.18;12.93;;;14.70;1.00;;;;;;4956466;29;20024;-78
2024/03/30 05:18:36;;;;;;;130.65;15.80;;;14.80;1.00;;;;;;4941067;29;20054;-78
2024/03/30 05:21:02;;;;;;;114.00;13.73;;;14.80;1.00;;;;;;4956764;29;20023;-78
2024/03/30 05:23:29;;;;;;;132.68;16.60;;;14.70;1.00;;;;;;4972920;28;20122;-78
2024/03/30 05:25:57;;;;;;;100.57;13.70;;;14.70;1.00;;;;;;4958124;29;20400;-78
2024/03/30 05:28:25;;;;;;;133.57;17.05;;;14.70;1.00;;;;;;4959936;28;20443;-78
2024/03/30 05:30:55;;;;;;;101.32;14.25;;;14.70;1.00;;;;;;4955992;29;20055;-78
2024/03/30 05:33:22;;;;;;;116.90;14.85;;;14.80;1.00;;;;;;4957452;28;20035;-79
2024/03/30 05:35:49;;;;;;;130.20;16.95;;;14.90;1.00;;;;;;4954059;29;20086;-78
2024/03/30 05:38:16;;;;;;;108.55;14.73;;;14.90;1.00;;;;;;4957766;29;20523;-78
2024/03/30 05:40:43;;;;;;;133.75;16.58;;;14.80;1.00;;;;;;4956265;28;20067;-78
2024/03/30 05:43:09;;;;;;;111.90;16.23;;;14.80;1.00;;;;;;4948843;29;20035;-78
2024/03/30 05:45:38;;;;;;;104.47;15.00;;;14.80;1.00;;;;;;4962833;28;20487;-78
2024/03/30 05:48:05;;;;;;;150.27;19.00;;;14.80;1.00;;;;;;4965007;28;20462;-78
2024/03/30 05:50:31;;;;;;;119.13;16.67;;;14.80;1.00;;;;;;4960562;28;20031;-78
2024/03/30 05:52:57;;;;;;;119.40;14.98;;;14.80;1.00;;;;;;4938497;29;20490;-78
2024/03/30 05:55:23;;;;;;;110.55;16.17;;;14.80;1.00;;;;;;4938436;29;20026;-78
2024/03/30 05:57:50;;;;;;;104.07;15.95;;;14.70;1.00;;;;;;4948428;29;20019;-78
2024/03/30 06:00:16;;;;;;;115.75;16.15;;;14.80;1.00;;;;;;4957520;29;20031;-78
2024/03/30 06:02:44;;;;;;;129.98;17.77;;;14.80;1.00;;;;;;4957395;29;20122;-78
2024/03/30 06:05:09;;;;;;;104.13;15.63;;;14.80;1.00;;;;;;4957631;29;20062;-78
2024/03/30 06:07:36;;;;;;;121.53;18.35;;;14.90;1.00;;;;;;4957382;28;20090;-78
2024/03/30 06:10:03;;;;;;;92.35;14.95;;;14.90;1.00;;;;;;4957007;29;20027;-78
2024/03/30 06:12:29;;;;;;;93.43;13.48;;;14.90;1.00;;;;;;4955863;28;20054;-78
2024/03/30 06:14:55;;;;;;;121.82;17.75;;;14.90;1.00;;;;;;4956878;29;20019;-78
2024/03/30 06:17:21;;;;;;;102.68;16.05;;;14.90;1.00;;;;;;4957086;29;20030;-78
2024/03/30 06:19:47;;;;;;;126.38;16.50;;;14.90;1.00;;;;;;4939991;29;20035;-78
2024/03/30 06:22:12;;;;;;;118.55;15.80;;;14.80;1.00;;;;;;4956924;29;20055;-78
2024/03/30 06:24:41;;;;;;;113.75;14.65;;;14.80;1.00;;;;;;4956943;29;20487;-78
2024/03/30 06:27:07;;;;;;;114.75;14.57;;;14.90;1.00;;;;;;4957046;28;20499;-78
2024/03/30 06:29:33;;;;;;;110.32;17.55;;;14.90;1.00;;;;;;4955334;29;20050;-78
2024/03/30 06:31:59;;;;;;;109.90;14.10;;;14.90;1.00;;;;;;4956279;29;20391;-78
2024/03/30 06:34:25;;;;;;;96.22;16.25;;;14.90;1.00;;;;;;4955484;28;20034;-78
2024/03/30 06:36:51;;;;;;;113.30;15.70;;;15.00;1.00;;;;;;4938117;29;20056;-78
2024/03/30 06:39:17;;;;;;;107.93;15.27;;;15.00;1.00;;;;;;4953987;29;20027;-78
2024/03/30 06:44:27;;;;;;;113.25;14.15;;;15.10;1.00;;;;;;4952929;29;20090;-78
2024/03/30 06:46:53;;;;;;;147.02;17.05;;;15.10;1.00;;;;;;4956516;29;20020;-78
2024/03/30 06:49:19;;;;;;;122.30;15.05;;;15.10;1.00;;;;;;4955192;28;20027;-78
2024/03/30 06:51:46;;;;;;;138.40;16.02;;;15.10;1.00;;;;;;4949641;29;20027;-78
2024/03/30 06:54:13;;;;;;;98.03;15.07;;;15.30;99.90;;;;;;4952472;29;20027;-78
2024/03/30 06:56:39;;;;;;;110.82;15.80;;;15.30;99.90;;;;;;4952192;29;20411;-78
2024/03/30 06:59:04;;;;;;;133.02;16.65;;;15.40;99.90;;;;;;4936877;29;20015;-78
2024/03/30 07:01:30;;;;;;;123.20;16.75;;;15.40;99.90;;;;;;4954479;29;20023;-78
2024/03/30 07:03:56;;;;;;;116.20;17.02;;;15.40;99.90;;;;;;4954815;29;20146;-78
2024/03/30 07:06:22;;;;;;;118.40;16.38;;;15.40;99.90;;;;;;4954994;29;20364;-78
2024/03/30 07:08:48;;;;;;;116.90;16.08;;;15.40;99.90;;;;;;4953677;29;20119;-78
2024/03/30 07:11:14;;;;;;;135.07;16.63;;;15.40;99.90;;;;;;4954885;29;20396;-78
2024/03/30 07:13:41;;;;;;;102.65;15.32;;;15.40;99.90;;;;;;4954917;29;20023;-78
2024/03/30 07:16:07;;;;;;;116.25;16.25;;;15.50;99.90;;;;;;4953606;29;20491;-78
2024/03/30 07:18:32;;;;;;;119.85;15.75;;;15.50;99.90;;;;;;4954668;29;20031;-78
2024/03/30 07:20:58;;;;;;;109.82;15.02;;;15.50;99.90;;;;;;4953585;29;20080;-78
2024/03/30 07:23:24;;;;;;;107.35;14.65;;;15.50;99.90;;;;;;4954336;28;20498;-78
2024/03/30 07:25:49;;;;;;;129.45;17.92;;;15.50;99.90;;;;;;4954672;29;20399;-77
2024/03/30 07:28:15;;;;;;;117.03;15.20;;;15.70;1.00;;;;;;4953227;29;20114;-78
2024/03/30 07:30:43;;;;;;;117.30;15.90;;;15.70;99.90;;;;;;4953011;29;20056;-78
2024/03/30 07:33:09;;;;;;;112.55;17.17;;;15.70;99.90;;;;;;4952925;29;20091;-78
2024/03/30 07:35:35;;;;;;;129.40;17.00;;;15.60;99.90;;;;;;4954560;29;20098;-78
2024/03/30 07:38:01;;;;;;;122.45;16.23;;;15.70;99.90;;;;;;4954466;29;20474;-78
2024/03/30 07:40:27;;;;;;;116.50;17.63;;;15.80;99.90;;;;;;4953138;29;20089;-78
2024/03/30 07:42:52;;;;;;;127.15;17.85;;;15.80;99.90;;;;;;4954510;28;20110;-78
2024/03/30 07:45:18;;;;;;;128.90;17.92;;;15.80;99.90;;;;;;4953118;29;20111;-77
2024/03/30 07:47:44;;;;;;;119.65;16.40;;;15.80;99.90;;;;;;4954331;29;20478;-78
2024/03/30 07:50:10;;;;;;;142.40;17.70;;;15.80;99.90;;;;;;4954310;29;20027;-78
2024/03/30 07:52:36;;;;;;;136.32;18.10;;;15.90;87.30;;;;;;4952887;29;20027;-77
2024/03/30 07:55:02;;;;;;;143.45;18.38;;;16.00;44.10;;;;;;4954178;29;20034;-78
2024/03/30 07:57:28;;;;;;;149.07;21.00;;;16.00;62.90;;;;;;4952836;29;20020;-78
2024/03/30 07:59:53;;;;;;;123.68;16.95;;;16.00;99.90;;;;;;4954102;29;20042;-78
2024/03/30 08:02:19;;;;;;;130.90;19.20;;;16.00;99.90;;;;;;4953903;28;20107;-78
2024/03/30 08:04:45;;;;;;;139.57;18.45;;;16.10;95.70;;;;;;4954108;29;20404;-78
2024/03/30 08:07:10;;;;;;;131.35;17.52;;;16.10;99.90;;;;;;4954107;29;20042;-77
2024/03/30 08:09:36;;;;;;;123.05;16.40;;;16.10;99.90;;;;;;4952310;29;20122;-78
2024/03/30 08:12:02;;;;;;;133.25;20.65;;;16.20;99.90;;;;;;4953932;29;20051;-78
2024/03/30 08:14:28;;;;;;;130.50;17.52;;;16.10;99.90;;;;;;4953465;29;20074;-78
2024/03/30 08:16:54;;;;;;;125.97;16.83;;;16.10;1.00;;;;;;4953533;29;20439;-77
2024/03/30 08:19:19;;;;;;;138.10;17.52;;;16.20;1.00;;;;;;4953783;29;20026;-78
2024/03/30 08:21:46;;;;;;;110.38;16.70;;;16.30;1.00;;;;;;4953845;28;20027;-78
2024/03/30 08:24:12;;;;;;;105.40;17.35;;;16.30;15.80;;;;;;4953712;29;20487;-78
2024/03/30 08:26:38;;;;;;;143.80;19.63;;;16.30;1.00;;;;;;4953544;28;20054;-77
2024/03/30 08:29:03;;;;;;;116.60;15.57;;;16.40;1.00;;;;;;4953407;29;20042;-78
2024/03/30 08:31:29;;;;;;;149.07;18.98;;;16.40;99.90;;;;;;4953581;28;20108;-77
2024/03/30 08:33:56;;;;;;;125.45;17.92;;;16.40;99.90;;;;;;4953616;29;20490;-78
2024/03/30 08:36:22;;;;;;;140.18;16.58;;;16.30;99.90;;;;;;4952769;28;20027;-77
2024/03/30 08:38:51;;;;;;;141.75;17.25;;;16.30;99.90;;;;;;4953212;29;20030;-77
2024/03/30 08:41:16;;;;;;;141.63;17.85;;;16.30;1.00;;;;;;4951108;29;20023;-78
2024/03/30 08:43:42;;;;;;;135.52;18.50;;;16.40;1.00;;;;;;4951557;29;20439;-78
2024/03/30 08:46:08;;;;;;;147.48;19.55;;;16.30;99.90;;;;;;4952578;29;20558;-77
2024/03/30 08:48:34;;;;;;;126.20;17.95;;;16.30;99.90;;;;;;4953177;29;20476;-77
2024/03/30 08:51:03;;;;;;;123.97;19.48;;;16.40;1.00;;;;;;4953300;29;20110;-78
2024/03/30 08:53:28;;;;;;;131.85;19.77;;;16.40;1.00;;;;;;4950504;29;20087;-77
2024/03/30 08:55:59;;;;;;;116.45;17.05;;;16.50;99.90;;;;;;4953378;29;20059;-77
2024/03/30 08:58:25;;;;;;;138.70;17.52;;;16.40;99.90;;;;;;4949929;29;20113;-78
2024/03/30 09:00:51;;;;;;;124.47;16.23;;;16.50;1.00;;;;;;4953348;28;20027;-77
2024/03/30 09:03:17;;;;;;;113.93;17.23;;;16.50;99.90;;;;;;4949294;29;20050;-78
2024/03/30 09:05:46;;;;;;;146.75;18.70;;;16.60;1.00;;;;;;4953170;29;20483;-78
2024/03/30 09:08:13;;;;;;;126.03;15.73;;;16.60;1.00;;;;;;4952964;29;20036;-77
2024/03/30 09:10:40;;;;;;;138.75;19.73;;;16.60;1.00;;;;;;4951653;29;20023;-77
2024/03/30 09:13:05;;;;;;;121.90;17.55;;;16.60;1.00;;;;;;4953007;29;20027;-77
2024/03/30 09:15:31;;;;;;;131.02;17.52;;;16.70;1.00;;;;;;4950026;29;20024;-78
2024/03/30 09:17:57;;;;;;;126.43;15.68;;;16.70;74.40;;;;;;4935775;29;20471;-77
2024/03/30 09:20:23;;;;;;;133.32;18.67;;;16.60;1.00;;;;;;4953093;29;20107;-77
2024/03/30 09:22:49;;;;;;;144.82;17.73;;;16.60;1.00;;;;;;4952962;29;20439;-77
2024/03/30 09:25:15;;;;;;;115.75;17.00;;;16.70;1.00;;;;;;4951564;29;20034;-77
2024/03/30 09:27:41;;;;;;;135.02;19.00;;;16.60;1.00;;;;;;4952801;29;20059;-77
2024/03/30 09:30:08;;;;;;;144.63;18.23;;;16.70;52.30;;;;;;4952621;29;20569;-77
2024/03/30 09:32:39;;;;;;;124.40;16.73;;;16.60;39.70;;;;;;4952810;28;20031;-78
2024/03/30 09:35:08;;;;;;;126.38;18.50;;;16.70;1.00;;;;;;4952959;29;20023;-77
2024/03/30 09:37:35;;;;;;;126.65;17.20;;;16.70;41.40;;;;;;4952885;28;20456;-77
2024/03/30 09:40:01;;;;;;;140.93;19.77;;;16.70;1.00;;;;;;4952157;29;20090;-77
2024/03/30 09:42:32;;;;;;;125.05;17.40;;;16.70;1.00;;;;;;4952515;29;20035;-77
2024/03/30 09:44:58;;;;;;;132.98;18.80;;;16.80;99.90;;;;;;4952735;29;20027;-77
2024/03/30 09:47:25;;;;;;;126.25;17.98;;;16.80;99.90;;;;;;4955170;28;20023;-78
2024/03/30 09:49:52;;;;;;;122.20;16.63;;;16.90;99.90;;;;;;4938984;29;20027;-77
2024/03/30 09:52:24;;;;;;;132.27;17.50;;;17.00;1.00;;;;;;4956347;29;20023;-78
2024/03/30 09:54:51;;;;;;;130.38;17.70;;;16.90;1.00;;;;;;4938776;29;20134;-78
2024/03/30 09:57:19;;;;;;;119.38;16.33;;;17.00;99.90;;;;;;4954834;29;20023;-77
2024/03/30 09:59:45;;;;;;;161.52;19.25;;;17.10;99.90;;;;;;4956027;29;20423;-77
2024/03/30 10:02:11;;;;;;;108.13;16.52;;;17.20;99.90;;;;;;4955942;29;20102;-77
2024/03/30 10:04:37;;;;;;;128.88;18.25;;;17.20;99.90;;;;;;4956025;28;20109;-77
2024/03/30 10:07:20;;;;;;;132.15;17.80;;;17.30;99.90;;;;;;4953532;28;20027;-77
2024/03/30 10:09:45;;;;;;;131.27;15.93;;;17.30;99.90;;;;;;4955798;29;20444;-77
2024/03/30 10:12:36;;;;;;;131.57;16.05;;;17.40;99.90;;;;;;4955867;29;20031;-77
2024/03/30 10:15:05;;;;;;;132.18;16.73;;;17.40;99.90;;;;;;4952548;29;20082;-77
2024/03/30 10:17:32;;;;;;;131.25;16.27;;;17.50;99.90;;;;;;4955869;29;20491;-77
2024/03/30 10:19:59;;;;;;;146.65;17.17;;;17.50;99.90;;;;;;4955581;29;20030;-77
2024/03/30 10:22:25;;;;;;;134.63;18.73;;;17.60;99.90;;;;;;4955806;29;20483;-77
2024/03/30 10:24:56;;;;;;;127.30;16.88;;;17.50;99.90;;;;;;4954397;29;20034;-77
2024/03/30 10:27:21;;;;;;;109.50;14.93;;;17.60;99.90;;;;;;4952332;29;20042;-77
2024/03/30 10:29:47;;;;;;;113.13;16.20;;;17.70;99.90;;;;;;4955366;29;20055;-77
2024/03/30 10:32:13;;;;;;;129.65;17.50;;;17.80;99.90;;;;;;4955574;29;20035;-77
2024/03/30 10:34:39;;;;;;;118.35;16.15;;;17.90;99.90;;;;;;4955532;29;20032;-77
2024/03/30 10:37:07;;;;;;;121.28;16.08;;;18.00;99.90;;;;;;4938163;29;20049;-77
2024/03/30 10:39:33;;;;;;;131.85;16.17;;;18.20;99.90;;;;;;4955340;29;20031;-77
2024/03/30 10:42:01;;;;;;;116.38;16.23;;;18.20;7.50;;;;;;4955399;29;20071;-77
2024/03/30 10:44:28;;;;;;;117.00;15.75;;;18.30;1.00;;;;;;4954017;28;20037;-78
2024/03/30 10:46:55;;;;;;;113.30;15.93;;;18.30;1.00;;;;;;4955098;29;20027;-77
2024/03/30 10:49:23;;;;;;;131.27;16.40;;;18.20;6.10;;;;;;4951391;29;20392;-77
2024/03/30 10:51:50;;;;;;;114.05;15.75;;;18.20;92.00;;;;;;4953702;29;20038;-77
2024/03/30 10:54:20;;;;;;;118.78;15.50;;;18.10;99.90;;;;;;4952145;29;20058;-77
2024/03/30 10:56:52;;;;;;;122.88;15.27;;;18.00;99.90;;;;;;4955151;29;20562;-77
2024/03/30 10:59:19;;;;;;;118.82;15.90;;;18.10;34.00;;;;;;4950797;28;20110;-77
2024/03/30 11:01:50;;;;;;;117.10;15.25;;;18.00;99.90;;;;;;4953516;29;20467;-77
2024/03/30 11:04:17;;;;;;;115.80;16.52;;;17.90;99.90;;;;;;4954680;29;20031;-77
2024/03/30 11:06:45;;;;;;;124.00;16.73;;;17.90;99.90;;;;;;4954829;29;20456;-76
2024/03/30 11:09:13;;;;;;;107.40;15.18;;;17.80;99.90;;;;;;4951893;29;20026;-76
2024/03/30 11:11:39;;;;;;;101.57;14.30;;;17.80;99.90;;;;;;4954712;29;20023;-76
2024/03/30 11:14:06;;;;;;;112.43;15.25;;;17.80;95.40;;;;;;4954552;29;20365;-77
2024/03/30 11:16:38;;;;;;;124.90;15.35;;;17.90;19.00;;;;;;4954314;29;20028;-76
2024/03/30 11:19:15;;;;;;;118.85;16.23;;;17.90;99.90;;;;;;4950620;29;20026;-77
2024/03/30 11:22:03;;;;;;;105.80;15.50;;;17.90;89.30;;;;;;4952026;29;20028;-76
2024/03/30 11:24:31;;;;;;;116.28;14.90;;;17.90;66.60;;;;;;4936917;29;20114;-76
2024/03/30 11:27:06;;;;;;;95.68;13.13;;;17.90;94.90;;;;;;4953212;29;20055;-76
2024/03/30 11:29:50;;;;;;;106.32;14.07;;;17.90;68.50;;;;;;4953323;28;20047;-76
2024/03/30 11:32:19;;;;;;;108.32;15.18;;;17.90;99.90;;;;;;4950968;29;20057;-76
2024/03/30 11:34:57;;;;;;;100.40;13.48;;;17.80;99.90;;;;;;4952226;29;20086;-78
2024/03/30 11:37:29;;;;;;;105.20;14.25;;;17.90;99.90;;;;;;4955807;29;20031;-78
2024/03/30 11:40:02;;;;;;;97.03;12.35;;;17.90;99.90;;;;;;4955755;29;20031;-77
2024/03/30 11:42:43;;;;;;;97.55;14.27;;;17.90;99.90;;;;;;4936625;29;20043;-76
2024/03/30 11:45:31;;;;;;;116.22;13.35;;;17.80;99.90;;;;;;4945591;29;20518;-77
2024/03/30 11:47:58;;;;;;;113.78;15.50;;;17.70;99.90;;;;;;4944080;29;20043;-77
2024/03/30 11:50:25;;;;;;;77.55;12.70;;;17.70;99.90;;;;;;4955311;29;20077;-78
2024/03/30 11:52:50;;;;;;;91.13;12.85;;;17.70;99.90;;;;;;4950957;29;20075;-77
2024/03/30 11:55:33;;;;;;;83.20;13.55;;;17.70;99.90;;;;;;4942102;29;20066;-77
2024/03/30 11:58:00;;;;;;;104.35;12.82;;;17.70;1.00;;;;;;4932768;29;20066;-76
2024/03/30 12:00:28;;;;;;;85.03;12.27;;;17.70;99.90;;;;;;4951891;29;20020;-76
2024/03/30 12:03:05;;;;;;;96.13;12.85;;;17.70;99.90;;;;;;4934554;29;20023;-76
2024/03/30 12:05:30;;;;;;;94.20;14.23;;;17.70;1.00;;;;;;4951106;29;20059;-76
2024/03/30 12:07:57;;;;;;;82.38;12.85;;;17.80;99.90;;;;;;4952226;29;20062;-76
2024/03/30 12:10:23;;;;;;;98.15;13.75;;;17.70;1.00;;;;;;4952110;28;20051;-76
2024/03/30 12:12:59;;;;;;;111.90;12.60;;;17.70;99.90;;;;;;4951918;29;20027;-76
2024/03/30 12:15:28;;;;;;;96.10;11.38;;;17.80;99.90;;;;;;4950950;29;20028;-76
2024/03/30 12:17:54;;;;;;;99.13;12.63;;;17.90;99.90;;;;;;4950532;29;20047;-76
2024/03/30 12:20:20;;;;;;;88.25;11.98;;;17.90;99.90;;;;;;4952686;29;20028;-76
2024/03/30 12:22:46;;;;;;;93.32;12.13;;;18.00;99.90;;;;;;4953533;28;20030;-76
2024/03/30 12:25:12;;;;;;;99.88;14.48;;;18.00;99.90;;;;;;4952258;29;20053;-76
2024/03/30 12:27:41;;;;;;;91.10;12.07;;;18.00;99.90;;;;;;4952217;29;20055;-76